createdAt,value
2022-11-14T00:00:16.549Z,954.1386719
2022-11-14T00:01:17.051Z,954.1514893
2022-11-14T00:02:17.528Z,954.0826416
2022-11-14T00:03:18.396Z,954.0770264
2022-11-14T00:04:19.052Z,954.0856323
2022-11-14T00:05:20.376Z,954.1156006
2022-11-14T00:06:20.878Z,954.1135864
2022-11-14T00:07:21.490Z,954.102356
2022-11-14T00:08:21.840Z,954.0776367
2022-11-14T00:09:22.791Z,954.0764771
2022-11-14T00:10:24.149Z,954.0554199
2022-11-14T00:11:24.666Z,954.0356445
2022-11-14T00:12:25.124Z,954.0638428
2022-11-14T00:13:25.754Z,954.0664063
2022-11-14T00:14:26.266Z,954.079834
2022-11-14T00:15:26.860Z,954.0557861
2022-11-14T00:16:27.488Z,954.0722046
2022-11-14T00:17:28.007Z,954.0585938
2022-11-14T00:18:28.727Z,954.0505981
2022-11-14T00:19:28.847Z,954.0675659
2022-11-14T00:20:30.117Z,954.0342407
2022-11-14T00:21:30.716Z,954.0264282
2022-11-14T00:22:31.377Z,954.0720825
2022-11-14T00:23:31.858Z,954.0206299
2022-11-14T00:24:32.316Z,954.0222168
2022-11-14T00:25:32.738Z,953.9910278
2022-11-14T00:26:33.410Z,953.9927979
2022-11-14T00:27:34.900Z,953.9985352
2022-11-14T00:28:35.677Z,954.0362549
2022-11-14T00:29:35.997Z,953.9927979
2022-11-14T00:31:07.403Z,953.9759521
2022-11-14T00:32:08.187Z,953.9678345
2022-11-14T00:33:08.895Z,953.9827881
2022-11-14T00:34:09.711Z,953.9720459
2022-11-14T00:35:10.812Z,953.949585
2022-11-14T00:36:11.295Z,953.9727173
2022-11-14T00:37:11.797Z,953.9202881
2022-11-14T00:38:12.447Z,953.9746704
2022-11-14T00:39:13.254Z,953.9310303
2022-11-14T00:40:14.313Z,953.9291382
2022-11-14T00:41:14.780Z,953.9187622
2022-11-14T00:42:15.235Z,953.9082642
2022-11-14T00:43:15.775Z,953.9324951
2022-11-14T00:44:16.364Z,953.9107666
2022-11-14T00:45:17.061Z,953.9349976
2022-11-14T00:46:17.505Z,953.928772
2022-11-14T00:47:17.934Z,953.9110718
2022-11-14T00:48:18.458Z,953.9056396
2022-11-14T00:49:19.156Z,953.8560791
2022-11-14T00:50:20.397Z,953.9202881
2022-11-14T00:51:21.058Z,953.8768921
2022-11-14T00:52:21.502Z,953.8353882
2022-11-14T00:53:21.970Z,953.814209
2022-11-14T00:54:22.747Z,953.7502441
2022-11-14T00:55:24.399Z,953.7379761
2022-11-14T00:56:25.049Z,953.694397
2022-11-14T00:57:25.612Z,953.6256104
2022-11-14T00:58:26.116Z,953.536377
2022-11-14T00:59:26.605Z,953.5387573
2022-11-14T01:00:28.006Z,953.4731445
2022-11-14T01:01:28.600Z,953.4522095
2022-11-14T01:02:29.264Z,953.4240112
2022-11-14T01:03:29.850Z,953.4195557
2022-11-14T01:04:30.342Z,953.4508057
2022-11-14T01:05:30.921Z,953.4334106
2022-11-14T01:06:31.446Z,953.4365845
2022-11-14T01:07:32.147Z,953.46875
2022-11-14T01:08:32.787Z,953.4579468
2022-11-14T01:09:33.481Z,953.3983765
2022-11-14T01:10:34.814Z,953.4011841
2022-11-14T01:11:35.291Z,953.4017334
2022-11-14T01:12:35.945Z,953.2815552
2022-11-14T01:14:07.339Z,953.302002
2022-11-14T01:15:08.073Z,953.2835693
2022-11-14T01:16:08.634Z,953.2739258
2022-11-14T01:17:10.022Z,953.2792358
2022-11-14T01:18:10.540Z,953.2579956
2022-11-14T01:19:11.279Z,953.2644043
2022-11-14T01:20:12.887Z,953.2581177
2022-11-14T01:21:14.429Z,953.289856
2022-11-14T01:22:15.176Z,953.2514038
2022-11-14T01:23:15.915Z,953.3152466
2022-11-14T01:24:16.482Z,953.3162231
2022-11-14T01:25:17.254Z,953.3297729
2022-11-14T01:26:17.917Z,953.3314209
2022-11-14T01:27:18.535Z,953.3485107
2022-11-14T01:28:19.210Z,953.3356323
2022-11-14T01:29:19.643Z,953.3201294
2022-11-14T01:30:21.662Z,953.3227539
2022-11-14T01:31:22.592Z,953.3234253
2022-11-14T01:32:23.274Z,953.3799438
2022-11-14T01:33:24.618Z,953.3078613
2022-11-14T01:34:25.127Z,953.3262329
2022-11-14T01:35:26.307Z,953.2977905
2022-11-14T01:36:26.900Z,953.3347168
2022-11-14T01:37:27.573Z,953.3131104
2022-11-14T01:38:28.523Z,953.2460327
2022-11-14T01:39:28.891Z,953.2514038
2022-11-14T01:40:29.309Z,953.2136841
2022-11-14T01:41:29.940Z,953.2123413
2022-11-14T01:42:30.408Z,953.1920166
2022-11-14T01:43:30.823Z,953.1838989
2022-11-14T01:44:31.446Z,953.0951538
2022-11-14T01:45:31.882Z,953.0862427
2022-11-14T01:46:32.391Z,953.0809326
2022-11-14T01:47:33.032Z,953.1400757
2022-11-14T01:48:33.383Z,953.149231
2022-11-14T01:49:33.838Z,953.1634521
2022-11-14T01:50:35.308Z,953.1624756
2022-11-14T01:51:36.198Z,953.0996704
2022-11-14T01:53:07.023Z,953.1159668
2022-11-14T01:54:07.682Z,953.0386963
2022-11-14T01:55:08.199Z,953.0147095
2022-11-14T01:56:08.728Z,953.0115356
2022-11-14T01:57:09.202Z,952.9996948
2022-11-14T01:58:09.696Z,952.9899902
2022-11-14T01:59:10.260Z,952.9515381
2022-11-14T02:00:10.800Z,952.9884644
2022-11-14T02:01:12.403Z,952.9593506
2022-11-14T02:02:12.882Z,952.9117432
2022-11-14T02:03:13.344Z,952.9385376
2022-11-14T02:04:15.379Z,952.9926758
2022-11-14T02:05:14.284Z,952.9405518
2022-11-14T02:06:14.743Z,952.977478
2022-11-14T02:07:15.286Z,952.9329834
2022-11-14T02:08:15.679Z,952.916748
2022-11-14T02:09:16.055Z,952.8894043
2022-11-14T02:10:17.295Z,952.9140015
2022-11-14T02:11:17.918Z,952.9129639
2022-11-14T02:12:19.129Z,952.8881226
2022-11-14T02:13:19.725Z,952.8585205
2022-11-14T02:14:20.291Z,952.8772583
2022-11-14T02:15:20.965Z,952.8353271
2022-11-14T02:16:21.425Z,952.848877
2022-11-14T02:17:29.488Z,952.833252
2022-11-14T02:18:22.868Z,952.8432617
2022-11-14T02:19:23.409Z,952.8195801
2022-11-14T02:20:24.043Z,952.8217163
2022-11-14T02:21:25.074Z,952.8043213
2022-11-14T02:22:25.732Z,952.7948608
2022-11-14T02:23:26.405Z,952.7948608
2022-11-14T02:24:26.923Z,952.7990723
2022-11-14T02:25:27.487Z,952.7798462
2022-11-14T02:26:27.937Z,952.7884521
2022-11-14T02:27:28.661Z,952.7894287
2022-11-14T02:28:29.271Z,952.7924805
2022-11-14T02:29:29.657Z,952.789978
2022-11-14T02:30:30.295Z,952.8078003
2022-11-14T02:31:31.538Z,952.8259277
2022-11-14T02:32:45.103Z,952.8046875
2022-11-14T02:33:32.522Z,952.8513184
2022-11-14T02:34:33.091Z,952.8284302
2022-11-14T02:35:34.317Z,952.8189087
2022-11-14T02:36:34.891Z,952.7521973
2022-11-14T02:38:06.345Z,952.7560425
2022-11-14T02:39:06.725Z,952.7316895
2022-11-14T02:40:07.480Z,952.7217407
2022-11-14T02:41:08.841Z,952.739502
2022-11-14T02:42:09.491Z,952.7521973
2022-11-14T02:43:10.079Z,952.7196045
2022-11-14T02:44:10.656Z,952.678894
2022-11-14T02:45:11.225Z,952.6325073
2022-11-14T02:46:12.602Z,952.6401367
2022-11-14T02:47:13.261Z,952.6551514
2022-11-14T02:48:13.800Z,952.6289673
2022-11-14T02:49:14.283Z,952.5680542
2022-11-14T02:50:14.734Z,952.588501
2022-11-14T02:51:15.780Z,952.5858765
2022-11-14T02:52:16.379Z,952.5200806
2022-11-14T02:53:17.038Z,952.5479736
2022-11-14T02:54:17.541Z,952.5298462
2022-11-14T02:55:18.003Z,952.564209
2022-11-14T02:56:18.454Z,952.4987793
2022-11-14T02:57:18.973Z,952.5359497
2022-11-14T02:58:19.493Z,952.5170288
2022-11-14T02:59:19.870Z,952.4783325
2022-11-14T03:00:20.471Z,952.4639893
2022-11-14T03:01:22.023Z,952.4935913
2022-11-14T03:02:22.601Z,952.5028076
2022-11-14T03:03:23.162Z,952.4829712
2022-11-14T03:04:23.541Z,952.5334473
2022-11-14T03:05:24.013Z,952.473999
2022-11-14T03:06:24.435Z,952.4815674
2022-11-14T03:07:25.029Z,952.4639893
2022-11-14T03:08:25.452Z,952.4882813
2022-11-14T03:09:25.983Z,952.5516357
2022-11-14T03:10:26.433Z,952.5410767
2022-11-14T03:11:26.934Z,952.5534668
2022-11-14T03:12:27.443Z,952.5550537
2022-11-14T03:13:27.982Z,952.6082764
2022-11-14T03:14:28.529Z,952.6146851
2022-11-14T03:15:29.158Z,952.6194458
2022-11-14T03:16:29.723Z,952.6135864
2022-11-14T03:17:30.187Z,952.6394043
2022-11-14T03:18:31.480Z,952.5878296
2022-11-14T03:19:31.309Z,952.647522
2022-11-14T03:20:31.744Z,952.6404419
2022-11-14T03:21:32.797Z,952.5985718
2022-11-14T03:22:33.283Z,952.5695801
2022-11-14T03:23:33.759Z,952.59375
2022-11-14T03:24:34.234Z,952.6550903
2022-11-14T03:25:35.778Z,952.5803223
2022-11-14T03:27:06.767Z,952.569519
2022-11-14T03:28:07.196Z,952.5678101
2022-11-14T03:29:07.739Z,952.5603027
2022-11-14T03:30:08.205Z,952.6004639
2022-11-14T03:31:09.788Z,952.5279541
2022-11-14T03:32:10.377Z,952.6434326
2022-11-14T03:33:10.848Z,952.6378174
2022-11-14T03:34:11.475Z,952.5952148
2022-11-14T03:35:11.961Z,952.6001587
2022-11-14T03:36:12.988Z,952.6071777
2022-11-14T03:37:13.688Z,952.5949707
2022-11-14T03:38:14.092Z,952.5734253
2022-11-14T03:39:14.670Z,952.5706177
2022-11-14T03:40:15.181Z,952.5368042
2022-11-14T03:41:16.284Z,952.5549927
2022-11-14T03:42:16.908Z,952.5390015
2022-11-14T03:43:17.306Z,952.5100098
2022-11-14T03:44:18.074Z,952.539978
2022-11-14T03:45:18.749Z,952.4908447
2022-11-14T03:46:19.243Z,952.5162354
2022-11-14T03:47:19.855Z,952.5343628
2022-11-14T03:48:20.321Z,952.5217285
2022-11-14T03:49:20.820Z,952.4276733
2022-11-14T03:50:21.271Z,952.3198242
2022-11-14T03:51:22.795Z,952.4241943
2022-11-14T03:52:23.354Z,952.5817261
2022-11-14T03:53:23.823Z,952.486084
2022-11-14T03:54:24.358Z,952.3664551
2022-11-14T03:55:24.830Z,952.3812256
2022-11-14T03:56:25.339Z,952.4589844
2022-11-14T03:57:25.882Z,952.5075684
2022-11-14T03:58:26.390Z,952.5246582
2022-11-14T03:59:26.783Z,952.4888916
2022-11-14T04:00:27.368Z,952.4159546
2022-11-14T04:01:28.368Z,952.4047852
2022-11-14T04:02:28.787Z,952.4001465
2022-11-14T04:03:29.304Z,952.3781128
2022-11-14T04:04:29.739Z,952.4089966
2022-11-14T04:05:30.337Z,952.4578247
2022-11-14T04:06:30.792Z,952.4171753
2022-11-14T04:07:31.395Z,952.4349976
2022-11-14T04:08:32.284Z,952.3613892
2022-11-14T04:09:32.234Z,952.3510132
2022-11-14T04:10:33.288Z,952.3562622
2022-11-14T04:11:33.774Z,952.3337402
2022-11-14T04:12:35.452Z,952.378418
2022-11-14T04:14:06.010Z,952.4098511
2022-11-14T04:15:06.471Z,952.3807983
2022-11-14T04:16:06.897Z,952.3876343
2022-11-14T04:17:07.363Z,952.4124756
2022-11-14T04:18:07.929Z,952.4135742
2022-11-14T04:19:08.238Z,952.3883667
2022-11-14T04:20:08.686Z,952.4360962
2022-11-14T04:21:09.107Z,952.3798218
2022-11-14T04:22:10.519Z,952.4083862
2022-11-14T04:23:10.964Z,952.4035034
2022-11-14T04:24:11.502Z,952.4207153
2022-11-14T04:25:11.840Z,952.3982544
2022-11-14T04:26:12.502Z,952.399353
2022-11-14T04:27:12.977Z,952.421936
2022-11-14T04:28:13.529Z,952.4187622
2022-11-14T04:29:13.870Z,952.4290771
2022-11-14T04:30:14.334Z,952.4810791
2022-11-14T04:31:14.780Z,952.46698
2022-11-14T04:32:16.031Z,952.4221802
2022-11-14T04:33:16.509Z,952.4369507
2022-11-14T04:34:16.883Z,952.4678345
2022-11-14T04:35:17.327Z,952.427002
2022-11-14T04:36:17.773Z,952.4564819
2022-11-14T04:37:18.293Z,952.4649048
2022-11-14T04:38:18.740Z,952.5089722
2022-11-14T04:39:19.147Z,952.4727173
2022-11-14T04:40:19.598Z,952.4234619
2022-11-14T04:41:20.043Z,952.4404907
2022-11-14T04:42:21.022Z,952.4799805
2022-11-14T04:43:21.512Z,952.4451294
2022-11-14T04:44:21.890Z,952.3809204
2022-11-14T04:45:22.696Z,952.4142456
2022-11-14T04:46:23.007Z,952.4525757
2022-11-14T04:47:23.453Z,952.5002441
2022-11-14T04:48:24.111Z,952.517334
2022-11-14T04:49:24.363Z,952.5089722
2022-11-14T04:50:24.836Z,952.5658569
2022-11-14T04:51:25.272Z,952.5134277
2022-11-14T04:52:26.491Z,952.552002
2022-11-14T04:53:26.977Z,952.5136719
2022-11-14T04:54:27.405Z,952.5214844
2022-11-14T04:55:27.835Z,952.5105591
2022-11-14T04:56:28.308Z,952.541626
2022-11-14T04:57:28.756Z,952.5362549
2022-11-14T04:58:29.658Z,952.5629883
2022-11-14T04:59:29.636Z,952.4909668
2022-11-14T05:00:30.051Z,952.4561157
2022-11-14T05:01:30.591Z,952.4880981
2022-11-14T05:02:31.495Z,952.536499
2022-11-14T05:03:32.071Z,952.4692383
2022-11-14T05:04:32.356Z,952.4611206
2022-11-14T05:05:32.795Z,952.5148315
2022-11-14T05:06:33.220Z,952.4932251
2022-11-14T05:07:34.189Z,952.4927979
2022-11-14T05:09:05.002Z,952.4621582
2022-11-14T05:10:05.310Z,952.4487305
2022-11-14T05:11:05.756Z,952.4359131
2022-11-14T05:12:06.786Z,952.4134521
2022-11-14T05:13:07.212Z,952.4172363
2022-11-14T05:14:07.691Z,952.4269409
2022-11-14T05:15:08.091Z,952.4335938
2022-11-14T05:16:08.556Z,952.4243774
2022-11-14T05:17:09.079Z,952.4701538
2022-11-14T05:18:09.511Z,952.4708862
2022-11-14T05:19:10.044Z,952.4724731
2022-11-14T05:20:10.574Z,952.4190674
2022-11-14T05:21:11.042Z,952.3987427
2022-11-14T05:22:12.292Z,952.4454956
2022-11-14T05:23:12.764Z,952.461731
2022-11-14T05:24:13.249Z,952.4747925
2022-11-14T05:25:13.647Z,952.4891968
2022-11-14T05:26:14.107Z,952.5032959
2022-11-14T05:27:14.534Z,952.5117798
2022-11-14T05:28:15.507Z,952.5175171
2022-11-14T05:29:16.183Z,952.489502
2022-11-14T05:30:16.383Z,952.552002
2022-11-14T05:31:16.781Z,952.5493774
2022-11-14T05:32:17.780Z,952.519043
2022-11-14T05:33:18.180Z,952.5459595
2022-11-14T05:34:18.661Z,952.5535278
2022-11-14T05:35:19.043Z,952.5697021
2022-11-14T05:36:19.513Z,952.5530396
2022-11-14T05:37:19.967Z,952.5653076
2022-11-14T05:38:20.426Z,952.5675049
2022-11-14T05:39:20.894Z,952.6019287
2022-11-14T05:40:21.325Z,952.5440063
2022-11-14T05:41:21.753Z,952.5814209
2022-11-14T05:42:22.206Z,952.5783081
2022-11-14T05:43:22.694Z,952.5540771
2022-11-14T05:44:23.178Z,952.5588989
2022-11-14T05:45:23.601Z,952.536499
2022-11-14T05:46:24.049Z,952.5267944
2022-11-14T05:47:24.515Z,952.5193481
2022-11-14T05:48:24.933Z,952.5612793
2022-11-14T05:49:25.401Z,952.559082
2022-11-14T05:50:25.829Z,952.5214844
2022-11-14T05:51:26.298Z,952.5817871
2022-11-14T05:52:27.292Z,952.5507813
2022-11-14T05:53:27.873Z,952.5261841
2022-11-14T05:54:28.490Z,952.6132813
2022-11-14T05:55:29.080Z,952.5895386
2022-11-14T05:56:29.595Z,952.6339111
2022-11-14T05:57:30.015Z,952.6507568
2022-11-14T05:58:31.349Z,952.6695557
2022-11-14T05:59:31.644Z,952.6646729
2022-11-14T06:00:38.013Z,952.6464233
2022-11-14T06:01:32.921Z,952.6503906
2022-11-14T06:03:04.499Z,952.6403198
2022-11-14T06:04:05.015Z,952.642334
2022-11-14T06:05:05.616Z,952.62323
2022-11-14T06:06:06.164Z,952.6674805
2022-11-14T06:07:06.819Z,952.664978
2022-11-14T06:08:07.318Z,952.6448364
2022-11-14T06:09:07.740Z,952.6390381
2022-11-14T06:10:08.256Z,952.6156006
2022-11-14T06:11:08.768Z,952.6276855
2022-11-14T06:12:09.368Z,952.6065063
2022-11-14T06:13:10.602Z,952.6459351
2022-11-14T06:14:11.386Z,952.6534424
2022-11-14T06:15:11.554Z,952.6525269
2022-11-14T06:16:11.951Z,952.6409302
2022-11-14T06:17:12.537Z,952.6031494
2022-11-14T06:18:13.043Z,952.6101685
2022-11-14T06:19:13.573Z,952.6774902
2022-11-14T06:20:14.052Z,952.7012329
2022-11-14T06:21:14.484Z,952.7736206
2022-11-14T06:22:15.890Z,952.7789917
2022-11-14T06:23:20.644Z,952.7732544
2022-11-14T06:24:17.030Z,952.776123
2022-11-14T06:25:17.654Z,952.7432861
2022-11-14T06:26:19.007Z,952.7542114
2022-11-14T06:27:19.420Z,952.7623291
2022-11-14T06:28:19.954Z,952.8074951
2022-11-14T06:29:20.496Z,952.7937012
2022-11-14T06:30:21.114Z,952.7693481
2022-11-14T06:31:22.861Z,952.8011475
2022-11-14T06:32:23.279Z,952.7906494
2022-11-14T06:33:23.787Z,952.8060303
2022-11-14T06:34:24.389Z,952.8049927
2022-11-14T06:35:25.011Z,952.7785645
2022-11-14T06:36:25.531Z,952.7768555
2022-11-14T06:37:28.440Z,952.7597046
2022-11-14T06:38:26.476Z,952.7521973
2022-11-14T06:39:27.036Z,952.7176514
2022-11-14T06:40:27.782Z,952.7590332
2022-11-14T06:41:28.231Z,952.8373413
2022-11-14T06:42:29.284Z,952.8305664
2022-11-14T06:43:29.713Z,952.8395996
2022-11-14T06:44:31.294Z,952.8445435
2022-11-14T06:45:30.893Z,952.829895
2022-11-14T06:46:31.321Z,952.8343506
2022-11-14T06:47:31.856Z,952.8549805
2022-11-14T06:48:32.612Z,952.7956543
2022-11-14T06:50:03.200Z,952.8764038
2022-11-14T06:51:03.752Z,952.8428345
2022-11-14T06:52:04.258Z,952.8618774
2022-11-14T06:53:05.699Z,952.8404541
2022-11-14T06:54:06.151Z,952.8403931
2022-11-14T06:55:06.559Z,952.8950195
2022-11-14T06:56:06.974Z,952.8735962
2022-11-14T06:57:07.534Z,952.8861694
2022-11-14T06:58:08.083Z,952.8560791
2022-11-14T06:59:08.633Z,952.8278198
2022-11-14T07:00:09.109Z,952.8203125
2022-11-14T07:01:09.578Z,952.8289795
2022-11-14T07:02:10.025Z,952.8431396
2022-11-14T07:03:11.197Z,952.8764648
2022-11-14T07:04:11.654Z,952.8912354
2022-11-14T07:05:12.186Z,952.8746948
2022-11-14T07:06:12.622Z,952.8446045
2022-11-14T07:07:13.132Z,952.8764038
2022-11-14T07:08:18.417Z,952.8571777
2022-11-14T07:09:14.047Z,952.8800049
2022-11-14T07:10:14.606Z,952.8546753
2022-11-14T07:11:15.183Z,952.901123
2022-11-14T07:12:15.603Z,952.9403687
2022-11-14T07:13:17.038Z,952.9540405
2022-11-14T07:14:17.552Z,952.9923706
2022-11-14T07:15:18.120Z,952.9685059
2022-11-14T07:16:18.782Z,952.9677124
2022-11-14T07:17:19.297Z,952.9801636
2022-11-14T07:18:19.755Z,952.9318848
2022-11-14T07:19:20.231Z,952.9470215
2022-11-14T07:20:20.776Z,953.0168457
2022-11-14T07:21:21.488Z,952.987915
2022-11-14T07:22:21.962Z,952.9816895
2022-11-14T07:23:23.203Z,953.0370483
2022-11-14T07:24:23.428Z,952.9838867
2022-11-14T07:25:23.856Z,953.0366211
2022-11-14T07:26:24.613Z,953.0296631
2022-11-14T07:27:25.042Z,952.9888916
2022-11-14T07:28:25.540Z,953.0230713
2022-11-14T07:29:26.013Z,952.9771729
2022-11-14T07:30:26.517Z,953.0140381
2022-11-14T07:31:27.169Z,952.9812622
2022-11-14T07:32:27.581Z,953.0276489
2022-11-14T07:33:29.144Z,953.0303345
2022-11-14T07:34:29.606Z,953.0562744
2022-11-14T07:35:30.027Z,953.0423584
2022-11-14T07:36:30.572Z,952.9973145
2022-11-14T07:37:31.029Z,953.0307617
2022-11-14T07:38:32.142Z,953.0320435
2022-11-14T07:40:02.754Z,953.0588379
2022-11-14T07:41:03.224Z,953.0321045
2022-11-14T07:42:03.743Z,953.0223999
2022-11-14T07:43:04.790Z,953.0626831
2022-11-14T07:44:05.412Z,953.0900269
2022-11-14T07:45:05.958Z,953.0512695
2022-11-14T07:46:06.538Z,953.0836182
2022-11-14T07:47:07.126Z,953.0884399
2022-11-14T07:48:07.569Z,953.1342163
2022-11-14T07:49:08.196Z,953.0654907
2022-11-14T07:50:08.747Z,953.0778198
2022-11-14T07:51:09.333Z,953.0650024
2022-11-14T07:52:09.807Z,953.067749
2022-11-14T07:53:10.784Z,953.107605
2022-11-14T07:54:11.291Z,953.1071777
2022-11-14T07:55:11.863Z,953.1218262
2022-11-14T07:56:12.422Z,953.0783691
2022-11-14T07:57:13.116Z,953.0723267
2022-11-14T07:58:13.497Z,953.0871582
2022-11-14T07:59:13.967Z,953.0698242
2022-11-14T08:00:14.403Z,953.0667725
2022-11-14T08:01:15.817Z,953.1035156
2022-11-14T08:02:16.353Z,953.1176758
2022-11-14T08:03:17.790Z,953.0946655
2022-11-14T08:04:18.249Z,953.0973511
2022-11-14T08:05:18.685Z,953.1243896
2022-11-14T08:06:19.218Z,953.0421753
2022-11-14T08:07:19.932Z,953.0671387
2022-11-14T08:08:20.447Z,953.0756836
2022-11-14T08:09:20.989Z,953.104248
2022-11-14T08:10:21.435Z,953.1118164
2022-11-14T08:11:34.529Z,953.1193848
2022-11-14T08:12:22.813Z,953.1189575
2022-11-14T08:13:33.030Z,953.1066895
2022-11-14T08:14:24.397Z,953.0967407
2022-11-14T08:15:24.919Z,953.1070557
2022-11-14T08:16:25.296Z,953.0962524
2022-11-14T08:17:26.004Z,953.1270142
2022-11-14T08:18:26.544Z,953.0803833
2022-11-14T08:19:26.857Z,953.0670166
2022-11-14T08:20:27.473Z,953.0465698
2022-11-14T08:21:27.898Z,953.0702515
2022-11-14T08:22:28.364Z,953.0601807
2022-11-14T08:23:29.311Z,953.0596924
2022-11-14T08:24:29.906Z,953.0280762
2022-11-14T08:25:30.406Z,953.0114136
2022-11-14T08:26:34.301Z,953.0557251
2022-11-14T08:28:02.001Z,953.0471191
2022-11-14T08:29:02.991Z,953.0795288
2022-11-14T08:30:03.582Z,953.0709229
2022-11-14T08:31:04.146Z,953.0582275
2022-11-14T08:32:04.722Z,953.0645142
2022-11-14T08:33:05.144Z,953.1083374
2022-11-14T08:34:06.523Z,953.1015015
2022-11-14T08:35:06.994Z,953.1208496
2022-11-14T08:36:08.118Z,953.1259155
2022-11-14T08:37:08.707Z,953.1334229
2022-11-14T08:38:09.240Z,953.1443481
2022-11-14T08:39:09.664Z,953.1130371
2022-11-14T08:40:10.105Z,953.1278076
2022-11-14T08:41:10.589Z,953.126709
2022-11-14T08:42:11.762Z,953.1672363
2022-11-14T08:43:12.311Z,953.1862793
2022-11-14T08:44:12.810Z,953.2053223
2022-11-14T08:45:13.201Z,953.1755981
2022-11-14T08:46:13.629Z,953.1970215
2022-11-14T08:47:14.147Z,953.2215576
2022-11-14T08:48:14.590Z,953.1854858
2022-11-14T08:49:15.187Z,953.1807861
2022-11-14T08:50:15.605Z,953.2184448
2022-11-14T08:51:16.042Z,953.232605
2022-11-14T08:52:17.082Z,953.286377
2022-11-14T08:53:17.836Z,953.2617188
2022-11-14T08:54:18.360Z,953.2047729
2022-11-14T08:55:18.878Z,953.1532593
2022-11-14T08:56:19.328Z,953.1796265
2022-11-14T08:57:19.950Z,953.2093506
2022-11-14T08:58:20.346Z,953.2249146
2022-11-14T08:59:20.926Z,953.211853
2022-11-14T09:00:21.468Z,953.211853
2022-11-14T09:01:22.002Z,953.2832031
2022-11-14T09:02:22.625Z,953.2496948
2022-11-14T09:03:23.827Z,953.277832
2022-11-14T09:04:24.357Z,953.2709351
2022-11-14T09:05:24.846Z,953.2420044
2022-11-14T09:06:26.060Z,953.293457
2022-11-14T09:07:26.575Z,953.3139038
2022-11-14T09:08:27.095Z,953.2525024
2022-11-14T09:09:27.372Z,953.2977905
2022-11-14T09:10:27.939Z,953.2700195
2022-11-14T09:11:28.491Z,953.2909546
2022-11-14T09:12:28.999Z,953.2792358
2022-11-14T09:13:30.550Z,953.2885742
2022-11-14T09:15:01.443Z,953.2470093
2022-11-14T09:16:02.022Z,953.2310791
2022-11-14T09:17:05.864Z,953.2629395
2022-11-14T09:18:03.137Z,953.3087769
2022-11-14T09:19:03.534Z,953.2732544
2022-11-14T09:20:04.008Z,953.2366943
2022-11-14T09:21:04.627Z,953.2399902
2022-11-14T09:22:05.136Z,953.3032227
2022-11-14T09:23:06.362Z,953.3408813
2022-11-14T09:24:06.963Z,953.2973633
2022-11-14T09:25:08.075Z,953.3178101
2022-11-14T09:26:08.518Z,953.3426514
2022-11-14T09:27:09.056Z,953.3922119
2022-11-14T09:28:09.737Z,953.3261108
2022-11-14T09:29:10.243Z,953.2946777
2022-11-14T09:30:10.724Z,953.3491211
2022-11-14T09:31:11.226Z,953.3928223
2022-11-14T09:32:11.721Z,953.4042358
2022-11-14T09:33:12.352Z,953.4464111
2022-11-14T09:34:13.719Z,953.4899292
2022-11-14T09:35:14.260Z,953.4473267
2022-11-14T09:36:14.721Z,953.3390503
2022-11-14T09:37:15.251Z,953.3692017
2022-11-14T09:38:15.966Z,953.4144287
2022-11-14T09:39:16.255Z,953.5125122
2022-11-14T09:40:16.793Z,953.6085815
2022-11-14T09:41:17.329Z,953.4820557
2022-11-14T09:42:17.819Z,953.4077148
2022-11-14T09:43:18.319Z,953.4384155
2022-11-14T09:44:20.853Z,953.5057983
2022-11-14T09:45:20.135Z,953.4729004
2022-11-14T09:46:20.626Z,953.4946289
2022-11-14T09:47:21.274Z,953.5042114
2022-11-14T09:48:21.666Z,953.4703369
2022-11-14T09:49:22.090Z,953.4397583
2022-11-14T09:50:25.883Z,953.4754639
2022-11-14T09:51:23.231Z,953.4543457
2022-11-14T09:52:23.804Z,953.4140625
2022-11-14T09:53:25.090Z,953.5195923
2022-11-14T09:54:25.994Z,953.5353394
2022-11-14T09:55:26.460Z,953.4692383
2022-11-14T09:56:27.085Z,953.4816284
2022-11-14T09:57:27.672Z,953.500061
2022-11-14T09:58:28.852Z,953.5180664
2022-11-14T09:59:28.746Z,953.4360962
2022-11-14T10:00:29.217Z,953.4743652
2022-11-14T10:01:29.699Z,953.5775146
2022-11-14T10:03:01.065Z,953.4954834
2022-11-14T10:04:07.028Z,953.5144653
2022-11-14T10:05:02.938Z,953.5631104
2022-11-14T10:06:03.409Z,953.6015015
2022-11-14T10:07:03.882Z,953.5390015
2022-11-14T10:08:04.437Z,953.5498657
2022-11-14T10:09:05.172Z,953.5164795
2022-11-14T10:10:05.681Z,953.5458374
2022-11-14T10:11:06.142Z,953.6499023
2022-11-14T10:12:06.587Z,953.6066895
2022-11-14T10:13:07.036Z,953.538269
2022-11-14T10:14:08.340Z,953.539978
2022-11-14T10:15:08.879Z,953.53479
2022-11-14T10:16:09.353Z,953.5513916
2022-11-14T10:17:10.872Z,953.5725098
2022-11-14T10:18:10.290Z,953.560791
2022-11-14T10:19:11.049Z,953.5440674
2022-11-14T10:20:11.382Z,953.5037231
2022-11-14T10:21:11.930Z,953.5421753
2022-11-14T10:22:12.435Z,953.5901489
2022-11-14T10:23:12.854Z,953.5895386
2022-11-14T10:24:14.301Z,953.539978
2022-11-14T10:25:14.778Z,953.5610962
2022-11-14T10:26:15.276Z,953.5708008
2022-11-14T10:27:15.836Z,953.5507813
2022-11-14T10:28:16.273Z,953.5610962
2022-11-14T10:29:16.712Z,953.5264893
2022-11-14T10:30:17.155Z,953.5751343
2022-11-14T10:31:17.711Z,953.5842285
2022-11-14T10:32:18.231Z,953.5610962
2022-11-14T10:33:18.762Z,953.5999756
2022-11-14T10:34:19.790Z,953.6183472
2022-11-14T10:35:20.285Z,953.6177979
2022-11-14T10:36:20.702Z,953.6298218
2022-11-14T10:37:21.409Z,953.5764771
2022-11-14T10:38:22.001Z,953.6358643
2022-11-14T10:39:22.737Z,953.6655273
2022-11-14T10:40:23.213Z,953.7120361
2022-11-14T10:41:50.035Z,953.6928101
2022-11-14T10:42:24.433Z,953.6521606
2022-11-14T10:43:24.859Z,953.6323242
2022-11-14T10:44:26.058Z,953.5914307
2022-11-14T10:45:26.579Z,953.6298218
2022-11-14T10:46:28.022Z,953.6331177
2022-11-14T10:47:28.474Z,953.632019
2022-11-14T10:48:29.233Z,953.5917358
2022-11-14T10:49:29.889Z,953.5437622
2022-11-14T10:51:00.732Z,953.5599365
2022-11-14T10:52:01.150Z,953.6085815
2022-11-14T10:53:01.644Z,953.5934448
2022-11-14T10:54:03.065Z,953.6210938
2022-11-14T10:55:03.567Z,953.6426392
2022-11-14T10:56:05.594Z,953.6298218
2022-11-14T10:57:05.600Z,953.663269
2022-11-14T10:58:06.022Z,953.6546631
2022-11-14T10:59:06.436Z,953.6066895
2022-11-14T11:00:06.923Z,953.6207886
2022-11-14T11:01:07.525Z,953.6592407
2022-11-14T11:02:07.961Z,953.6774902
2022-11-14T11:03:08.406Z,953.6911011